sensor_id;sensor_type;location;lat;lon;timestamp;P1;durP1;ratioP1;P2;durP2;ratioP2
16115;SDS011;8162;47.104;15.432;2023-06-14T00:02:29;4.73;;;3.97;;
16115;SDS011;8162;47.104;15.432;2023-06-14T00:05:30;4.23;;;3.63;;
16115;SDS011;8162;47.104;15.432;2023-06-14T00:08:33;4.03;;;3.63;;
16115;SDS011;8162;47.104;15.432;2023-06-14T00:11:34;7.53;;;4.70;;
16115;SDS011;8162;47.104;15.432;2023-06-14T00:14:35;9.77;;;4.20;;
16115;SDS011;8162;47.104;15.432;2023-06-14T00:17:36;4.87;;;3.57;;
16115;SDS011;8162;47.104;15.432;2023-06-14T00:20:38;4.37;;;3.97;;
16115;SDS011;8162;47.104;15.432;2023-06-14T00:23:41;4.33;;;3.90;;
16115;SDS011;8162;47.104;15.432;2023-06-14T00:26:42;4.60;;;3.90;;
16115;SDS011;8162;47.104;15.432;2023-06-14T00:29:43;6.57;;;3.90;;
16115;SDS011;8162;47.104;15.432;2023-06-14T00:32:45;5.30;;;3.77;;
16115;SDS011;8162;47.104;15.432;2023-06-14T00:35:46;7.43;;;4.10;;
16115;SDS011;8162;47.104;15.432;2023-06-14T00:38:48;3.90;;;3.60;;
16115;SDS011;8162;47.104;15.432;2023-06-14T00:41:49;4.23;;;3.87;;
16115;SDS011;8162;47.104;15.432;2023-06-14T00:44:50;7.03;;;4.00;;
16115;SDS011;8162;47.104;15.432;2023-06-14T00:47:51;4.00;;;3.53;;
16115;SDS011;8162;47.104;15.432;2023-06-14T00:50:55;4.00;;;3.70;;
16115;SDS011;8162;47.104;15.432;2023-06-14T00:53:56;4.60;;;3.93;;
16115;SDS011;8162;47.104;15.432;2023-06-14T00:56:57;8.17;;;4.67;;
16115;SDS011;8162;47.104;15.432;2023-06-14T00:59:58;8.37;;;3.30;;
16115;SDS011;8162;47.104;15.432;2023-06-14T01:02:59;4.90;;;3.90;;
16115;SDS011;8162;47.104;15.432;2023-06-14T01:06:23;6.17;;;4.77;;
16115;SDS011;8162;47.104;15.432;2023-06-14T01:18:52;4.53;;;4.10;;
16115;SDS011;8162;47.104;15.432;2023-06-14T01:21:56;7.40;;;4.00;;
16115;SDS011;8162;47.104;15.432;2023-06-14T01:24:58;6.73;;;3.93;;
16115;SDS011;8162;47.104;15.432;2023-06-14T01:27:59;5.10;;;4.60;;
16115;SDS011;8162;47.104;15.432;2023-06-14T01:31:02;4.73;;;4.10;;
16115;SDS011;8162;47.104;15.432;2023-06-14T01:34:04;6.77;;;4.10;;
16115;SDS011;8162;47.104;15.432;2023-06-14T01:37:05;7.53;;;4.63;;
16115;SDS011;8162;47.104;15.432;2023-06-14T01:40:07;5.87;;;4.47;;
16115;SDS011;8162;47.104;15.432;2023-06-14T01:43:10;4.20;;;3.80;;
16115;SDS011;8162;47.104;15.432;2023-06-14T01:46:12;7.60;;;4.57;;
16115;SDS011;8162;47.104;15.432;2023-06-14T01:49:14;5.90;;;5.40;;
16115;SDS011;8162;47.104;15.432;2023-06-14T01:52:15;6.27;;;4.87;;
16115;SDS011;8162;47.104;15.432;2023-06-14T01:55:16;6.93;;;5.30;;
16115;SDS011;8162;47.104;15.432;2023-06-14T01:58:17;5.37;;;4.87;;
16115;SDS011;8162;47.104;15.432;2023-06-14T02:01:19;4.80;;;4.40;;
16115;SDS011;8162;47.104;15.432;2023-06-14T02:04:21;6.00;;;4.33;;
16115;SDS011;8162;47.104;15.432;2023-06-14T02:07:22;4.90;;;4.33;;
16115;SDS011;8162;47.104;15.432;2023-06-14T02:10:24;5.87;;;4.80;;
16115;SDS011;8162;47.104;15.432;2023-06-14T02:13:25;4.87;;;4.47;;
16115;SDS011;8162;47.104;15.432;2023-06-14T02:16:26;5.20;;;4.70;;
16115;SDS011;8162;47.104;15.432;2023-06-14T02:19:29;4.90;;;3.83;;
16115;SDS011;8162;47.104;15.432;2023-06-14T02:22:31;7.03;;;4.43;;
16115;SDS011;8162;47.104;15.432;2023-06-14T02:25:32;5.53;;;5.03;;
16115;SDS011;8162;47.104;15.432;2023-06-14T02:28:33;4.83;;;4.37;;
16115;SDS011;8162;47.104;15.432;2023-06-14T02:31:35;4.67;;;4.17;;
16115;SDS011;8162;47.104;15.432;2023-06-14T02:34:36;4.47;;;4.07;;
16115;SDS011;8162;47.104;15.432;2023-06-14T02:37:41;8.10;;;4.63;;
16115;SDS011;8162;47.104;15.432;2023-06-14T02:40:42;4.87;;;4.27;;
16115;SDS011;8162;47.104;15.432;2023-06-14T02:43:43;4.57;;;4.00;;
16115;SDS011;8162;47.104;15.432;2023-06-14T02:46:45;5.93;;;5.03;;
16115;SDS011;8162;47.104;15.432;2023-06-14T02:49:46;5.30;;;4.47;;
16115;SDS011;8162;47.104;15.432;2023-06-14T02:52:47;4.13;;;3.73;;
16115;SDS011;8162;47.104;15.432;2023-06-14T02:55:48;4.83;;;4.13;;
16115;SDS011;8162;47.104;15.432;2023-06-14T02:58:49;7.13;;;3.93;;
16115;SDS011;8162;47.104;15.432;2023-06-14T03:01:50;5.27;;;4.77;;
16115;SDS011;8162;47.104;15.432;2023-06-14T03:04:51;4.17;;;3.77;;
16115;SDS011;8162;47.104;15.432;2023-06-14T03:07:52;8.20;;;4.60;;
16115;SDS011;8162;47.104;15.432;2023-06-14T03:10:54;5.77;;;3.77;;
16115;SDS011;8162;47.104;15.432;2023-06-14T03:13:57;5.37;;;4.20;;
16115;SDS011;8162;47.104;15.432;2023-06-14T03:16:59;4.87;;;4.37;;
16115;SDS011;8162;47.104;15.432;2023-06-14T03:20:00;4.90;;;4.30;;
16115;SDS011;8162;47.104;15.432;2023-06-14T03:23:02;4.17;;;3.77;;
16115;SDS011;8162;47.104;15.432;2023-06-14T03:26:03;4.60;;;4.07;;
16115;SDS011;8162;47.104;15.432;2023-06-14T03:29:05;6.47;;;3.90;;
16115;SDS011;8162;47.104;15.432;2023-06-14T03:32:06;4.37;;;3.97;;
16115;SDS011;8162;47.104;15.432;2023-06-14T03:35:07;4.40;;;3.87;;
16115;SDS011;8162;47.104;15.432;2023-06-14T03:38:08;8.00;;;4.23;;
16115;SDS011;8162;47.104;15.432;2023-06-14T03:41:10;4.43;;;3.50;;
16115;SDS011;8162;47.104;15.432;2023-06-14T03:44:11;4.87;;;4.37;;
16115;SDS011;8162;47.104;15.432;2023-06-14T03:47:12;6.07;;;4.50;;
16115;SDS011;8162;47.104;15.432;2023-06-14T03:50:13;4.93;;;4.13;;
16115;SDS011;8162;47.104;15.432;2023-06-14T03:53:15;6.57;;;4.73;;
16115;SDS011;8162;47.104;15.432;2023-06-14T03:56:16;5.23;;;4.77;;
16115;SDS011;8162;47.104;15.432;2023-06-14T03:59:18;4.63;;;4.07;;
16115;SDS011;8162;47.104;15.432;2023-06-14T04:02:19;4.90;;;4.27;;
16115;SDS011;8162;47.104;15.432;2023-06-14T04:05:20;5.87;;;3.80;;
16115;SDS011;8162;47.104;15.432;2023-06-14T04:08:21;4.73;;;4.23;;
16115;SDS011;8162;47.104;15.432;2023-06-14T04:11:22;5.00;;;3.87;;
16115;SDS011;8162;47.104;15.432;2023-06-14T04:14:25;4.77;;;4.37;;
16115;SDS011;8162;47.104;15.432;2023-06-14T04:17:26;4.37;;;3.97;;
16115;SDS011;8162;47.104;15.432;2023-06-14T04:20:27;5.30;;;4.03;;
16115;SDS011;8162;47.104;15.432;2023-06-14T04:23:29;5.43;;;4.23;;
16115;SDS011;8162;47.104;15.432;2023-06-14T04:26:30;5.40;;;3.80;;
16115;SDS011;8162;47.104;15.432;2023-06-14T04:29:33;3.97;;;3.57;;
16115;SDS011;8162;47.104;15.432;2023-06-14T04:32:34;3.70;;;3.40;;
16115;SDS011;8162;47.104;15.432;2023-06-14T04:35:39;4.20;;;3.80;;
16115;SDS011;8162;47.104;15.432;2023-06-14T04:38:40;5.07;;;4.47;;
16115;SDS011;8162;47.104;15.432;2023-06-14T04:41:45;4.63;;;4.17;;
16115;SDS011;8162;47.104;15.432;2023-06-14T04:44:46;5.97;;;4.40;;
16115;SDS011;8162;47.104;15.432;2023-06-14T04:47:49;4.57;;;3.97;;
16115;SDS011;8162;47.104;15.432;2023-06-14T04:50:51;6.43;;;4.47;;
16115;SDS011;8162;47.104;15.432;2023-06-14T04:53:52;5.53;;;4.43;;
16115;SDS011;8162;47.104;15.432;2023-06-14T04:56:57;4.80;;;4.40;;
16115;SDS011;8162;47.104;15.432;2023-06-14T04:59:58;5.13;;;4.23;;
16115;SDS011;8162;47.104;15.432;2023-06-14T05:03:04;4.83;;;4.43;;
16115;SDS011;8162;47.104;15.432;2023-06-14T05:06:05;6.23;;;4.47;;
16115;SDS011;8162;47.104;15.432;2023-06-14T05:09:06;4.63;;;4.23;;
16115;SDS011;8162;47.104;15.432;2023-06-14T05:12:08;4.70;;;4.20;;
16115;SDS011;8162;47.104;15.432;2023-06-14T05:15:09;6.00;;;4.83;;
16115;SDS011;8162;47.104;15.432;2023-06-14T05:18:10;5.40;;;4.73;;
16115;SDS011;8162;47.104;15.432;2023-06-14T05:21:13;5.20;;;4.70;;
16115;SDS011;8162;47.104;15.432;2023-06-14T05:24:18;6.67;;;4.17;;
16115;SDS011;8162;47.104;15.432;2023-06-14T05:27:19;5.97;;;4.77;;
16115;SDS011;8162;47.104;15.432;2023-06-14T05:30:20;5.80;;;4.20;;
16115;SDS011;8162;47.104;15.432;2023-06-14T05:33:22;5.97;;;4.73;;
16115;SDS011;8162;47.104;15.432;2023-06-14T05:36:23;7.30;;;4.70;;
16115;SDS011;8162;47.104;15.432;2023-06-14T05:39:24;5.50;;;4.73;;
16115;SDS011;8162;47.104;15.432;2023-06-14T05:42:25;6.17;;;4.90;;
16115;SDS011;8162;47.104;15.432;2023-06-14T05:45:26;5.30;;;4.80;;
16115;SDS011;8162;47.104;15.432;2023-06-14T05:48:27;5.60;;;4.67;;
16115;SDS011;8162;47.104;15.432;2023-06-14T05:51:28;6.73;;;5.30;;
16115;SDS011;8162;47.104;15.432;2023-06-14T05:54:30;6.87;;;4.63;;
16115;SDS011;8162;47.104;15.432;2023-06-14T05:57:31;6.83;;;4.73;;
16115;SDS011;8162;47.104;15.432;2023-06-14T06:00:32;5.47;;;4.80;;
16115;SDS011;8162;47.104;15.432;2023-06-14T06:03:33;5.97;;;5.17;;
16115;SDS011;8162;47.104;15.432;2023-06-14T06:06:34;4.43;;;4.03;;
16115;SDS011;8162;47.104;15.432;2023-06-14T06:09:35;5.43;;;4.80;;
16115;SDS011;8162;47.104;15.432;2023-06-14T06:12:37;5.17;;;4.77;;
16115;SDS011;8162;47.104;15.432;2023-06-14T06:15:38;6.50;;;4.80;;
16115;SDS011;8162;47.104;15.432;2023-06-14T06:18:39;5.40;;;4.90;;
16115;SDS011;8162;47.104;15.432;2023-06-14T06:21:40;6.30;;;5.07;;
16115;SDS011;8162;47.104;15.432;2023-06-14T06:24:41;5.33;;;4.20;;
16115;SDS011;8162;47.104;15.432;2023-06-14T06:27:42;5.30;;;4.83;;
16115;SDS011;8162;47.104;15.432;2023-06-14T06:30:43;4.87;;;3.63;;
16115;SDS011;8162;47.104;15.432;2023-06-14T06:33:44;5.30;;;4.80;;
16115;SDS011;8162;47.104;15.432;2023-06-14T06:36:45;5.40;;;4.43;;
16115;SDS011;8162;47.104;15.432;2023-06-14T06:39:46;4.83;;;4.40;;
16115;SDS011;8162;47.104;15.432;2023-06-14T06:42:47;6.60;;;5.10;;
16115;SDS011;8162;47.104;15.432;2023-06-14T06:45:50;4.93;;;4.53;;
16115;SDS011;8162;47.104;15.432;2023-06-14T06:48:51;6.00;;;4.80;;
16115;SDS011;8162;47.104;15.432;2023-06-14T06:52:02;7.13;;;4.67;;
16115;SDS011;8162;47.104;15.432;2023-06-14T06:55:03;5.10;;;4.70;;
16115;SDS011;8162;47.104;15.432;2023-06-14T06:58:04;8.13;;;5.00;;
16115;SDS011;8162;47.104;15.432;2023-06-14T07:01:06;5.30;;;4.80;;
16115;SDS011;8162;47.104;15.432;2023-06-14T07:04:09;4.90;;;4.50;;
16115;SDS011;8162;47.104;15.432;2023-06-14T07:07:10;4.57;;;4.17;;
16115;SDS011;8162;47.104;15.432;2023-06-14T07:10:11;3.87;;;3.57;;
16115;SDS011;8162;47.104;15.432;2023-06-14T07:13:12;4.77;;;4.37;;
16115;SDS011;8162;47.104;15.432;2023-06-14T07:16:13;4.93;;;4.50;;
16115;SDS011;8162;47.104;15.432;2023-06-14T07:19:15;4.03;;;3.63;;
16115;SDS011;8162;47.104;15.432;2023-06-14T07:22:16;5.53;;;3.90;;
16115;SDS011;8162;47.104;15.432;2023-06-14T07:25:17;4.07;;;3.73;;
16115;SDS011;8162;47.104;15.432;2023-06-14T07:28:20;6.97;;;4.57;;
16115;SDS011;8162;47.104;15.432;2023-06-14T07:31:21;4.63;;;4.00;;
16115;SDS011;8162;47.104;15.432;2023-06-14T07:34:22;4.77;;;4.27;;
16115;SDS011;8162;47.104;15.432;2023-06-14T07:37:23;4.67;;;4.27;;
16115;SDS011;8162;47.104;15.432;2023-06-14T07:40:24;4.97;;;4.57;;
16115;SDS011;8162;47.104;15.432;2023-06-14T07:43:25;6.13;;;4.60;;
16115;SDS011;8162;47.104;15.432;2023-06-14T07:46:26;5.43;;;4.13;;
16115;SDS011;8162;47.104;15.432;2023-06-14T07:49:27;5.47;;;4.67;;
16115;SDS011;8162;47.104;15.432;2023-06-14T07:52:28;4.40;;;4.00;;
16115;SDS011;8162;47.104;15.432;2023-06-14T07:55:29;5.43;;;3.97;;
16115;SDS011;8162;47.104;15.432;2023-06-14T07:58:32;5.03;;;4.40;;
16115;SDS011;8162;47.104;15.432;2023-06-14T08:01:34;4.73;;;4.27;;
16115;SDS011;8162;47.104;15.432;2023-06-14T08:04:36;4.63;;;4.23;;
16115;SDS011;8162;47.104;15.432;2023-06-14T08:07:37;5.50;;;4.40;;
16115;SDS011;8162;47.104;15.432;2023-06-14T08:10:38;6.80;;;4.70;;
16115;SDS011;8162;47.104;15.432;2023-06-14T08:13:39;8.00;;;5.43;;
16115;SDS011;8162;47.104;15.432;2023-06-14T08:16:40;6.77;;;5.97;;
16115;SDS011;8162;47.104;15.432;2023-06-14T08:19:41;7.27;;;5.10;;
16115;SDS011;8162;47.104;15.432;2023-06-14T08:22:42;9.10;;;6.67;;
16115;SDS011;8162;47.104;15.432;2023-06-14T08:25:46;6.80;;;6.20;;
16115;SDS011;8162;47.104;15.432;2023-06-14T08:28:47;8.77;;;6.50;;
16115;SDS011;8162;47.104;15.432;2023-06-14T08:31:48;7.03;;;6.43;;
16115;SDS011;8162;47.104;15.432;2023-06-14T08:34:49;8.40;;;7.60;;
16115;SDS011;8162;47.104;15.432;2023-06-14T08:37:50;10.73;;;7.93;;
16115;SDS011;8162;47.104;15.432;2023-06-14T08:40:52;8.07;;;7.27;;
16115;SDS011;8162;47.104;15.432;2023-06-14T08:43:53;10.27;;;9.27;;
16115;SDS011;8162;47.104;15.432;2023-06-14T08:46:55;10.07;;;8.60;;
16115;SDS011;8162;47.104;15.432;2023-06-14T08:49:59;10.13;;;8.63;;
16115;SDS011;8162;47.104;15.432;2023-06-14T08:53:01;8.97;;;7.70;;
16115;SDS011;8162;47.104;15.432;2023-06-14T08:56:02;7.40;;;6.63;;
16115;SDS011;8162;47.104;15.432;2023-06-14T08:59:05;8.87;;;7.90;;
16115;SDS011;8162;47.104;15.432;2023-06-14T09:02:08;7.53;;;6.73;;
16115;SDS011;8162;47.104;15.432;2023-06-14T09:05:14;9.60;;;7.27;;
16115;SDS011;8162;47.104;15.432;2023-06-14T09:08:18;11.13;;;8.07;;
16115;SDS011;8162;47.104;15.432;2023-06-14T09:11:22;9.23;;;7.70;;
16115;SDS011;8162;47.104;15.432;2023-06-14T09:14:23;7.23;;;6.63;;
16115;SDS011;8162;47.104;15.432;2023-06-14T09:17:25;9.50;;;7.33;;
16115;SDS011;8162;47.104;15.432;2023-06-14T09:20:26;7.37;;;6.67;;
16115;SDS011;8162;47.104;15.432;2023-06-14T09:23:27;7.03;;;6.27;;
16115;SDS011;8162;47.104;15.432;2023-06-14T09:26:28;7.97;;;6.57;;
16115;SDS011;8162;47.104;15.432;2023-06-14T09:29:29;9.17;;;5.97;;
16115;SDS011;8162;47.104;15.432;2023-06-14T09:32:32;6.57;;;5.97;;
16115;SDS011;8162;47.104;15.432;2023-06-14T09:35:36;7.30;;;6.50;;
16115;SDS011;8162;47.104;15.432;2023-06-14T09:38:39;7.50;;;6.80;;
16115;SDS011;8162;47.104;15.432;2023-06-14T09:41:40;7.90;;;7.20;;
16115;SDS011;8162;47.104;15.432;2023-06-14T09:44:43;6.13;;;5.63;;
16115;SDS011;8162;47.104;15.432;2023-06-14T09:47:44;7.57;;;6.87;;
16115;SDS011;8162;47.104;15.432;2023-06-14T09:50:46;6.50;;;5.90;;
16115;SDS011;8162;47.104;15.432;2023-06-14T09:53:48;6.80;;;5.70;;
16115;SDS011;8162;47.104;15.432;2023-06-14T09:56:50;6.10;;;5.50;;
16115;SDS011;8162;47.104;15.432;2023-06-14T09:59:57;7.50;;;5.70;;
16115;SDS011;8162;47.104;15.432;2023-06-14T10:03:00;6.50;;;5.20;;
16115;SDS011;8162;47.104;15.432;2023-06-14T10:06:04;6.03;;;5.43;;
16115;SDS011;8162;47.104;15.432;2023-06-14T10:09:08;5.97;;;5.47;;
16115;SDS011;8162;47.104;15.432;2023-06-14T10:12:09;6.63;;;5.33;;
16115;SDS011;8162;47.104;15.432;2023-06-14T10:15:12;5.03;;;4.50;;
16115;SDS011;8162;47.104;15.432;2023-06-14T10:24:35;5.87;;;5.37;;
16115;SDS011;8162;47.104;15.432;2023-06-14T10:27:39;5.27;;;4.73;;
16115;SDS011;8162;47.104;15.432;2023-06-14T10:30:40;6.27;;;4.93;;
16115;SDS011;8162;47.104;15.432;2023-06-14T10:34:02;5.73;;;5.10;;
16115;SDS011;8162;47.104;15.432;2023-06-14T10:37:04;5.10;;;4.70;;
16115;SDS011;8162;47.104;15.432;2023-06-14T10:40:06;4.93;;;4.43;;
16115;SDS011;8162;47.104;15.432;2023-06-14T10:43:24;5.33;;;4.80;;
16115;SDS011;8162;47.104;15.432;2023-06-14T10:46:25;5.77;;;5.27;;
16115;SDS011;8162;47.104;15.432;2023-06-14T10:49:42;5.30;;;4.43;;
16115;SDS011;8162;47.104;15.432;2023-06-14T10:52:44;4.40;;;4.00;;
16115;SDS011;8162;47.104;15.432;2023-06-14T10:55:45;5.10;;;4.37;;
16115;SDS011;8162;47.104;15.432;2023-06-14T10:58:46;4.67;;;4.27;;
16115;SDS011;8162;47.104;15.432;2023-06-14T11:02:14;4.90;;;4.50;;
16115;SDS011;8162;47.104;15.432;2023-06-14T11:05:25;4.57;;;4.17;;
16115;SDS011;8162;47.104;15.432;2023-06-14T11:11:49;5.10;;;4.50;;
16115;SDS011;8162;47.104;15.432;2023-06-14T11:14:51;4.77;;;4.37;;
16115;SDS011;8162;47.104;15.432;2023-06-14T11:17:53;4.03;;;3.53;;
16115;SDS011;8162;47.104;15.432;2023-06-14T11:20:54;4.40;;;4.00;;
16115;SDS011;8162;47.104;15.432;2023-06-14T11:23:55;4.80;;;4.43;;
16115;SDS011;8162;47.104;15.432;2023-06-14T11:26:56;4.87;;;4.30;;
16115;SDS011;8162;47.104;15.432;2023-06-14T11:29:57;4.47;;;4.07;;
16115;SDS011;8162;47.104;15.432;2023-06-14T11:32:59;4.57;;;3.90;;
16115;SDS011;8162;47.104;15.432;2023-06-14T11:36:03;4.77;;;4.30;;
16115;SDS011;8162;47.104;15.432;2023-06-14T11:39:06;5.00;;;4.60;;
16115;SDS011;8162;47.104;15.432;2023-06-14T11:42:07;4.63;;;4.17;;
16115;SDS011;8162;47.104;15.432;2023-06-14T11:45:08;5.13;;;3.77;;
16115;SDS011;8162;47.104;15.432;2023-06-14T11:48:10;4.27;;;3.93;;
16115;SDS011;8162;47.104;15.432;2023-06-14T11:51:11;4.57;;;4.17;;
16115;SDS011;8162;47.104;15.432;2023-06-14T11:54:12;5.80;;;4.53;;
16115;SDS011;8162;47.104;15.432;2023-06-14T11:57:13;4.60;;;4.23;;
16115;SDS011;8162;47.104;15.432;2023-06-14T12:00:14;4.17;;;3.77;;
16115;SDS011;8162;47.104;15.432;2023-06-14T12:03:16;5.10;;;3.90;;
16115;SDS011;8162;47.104;15.432;2023-06-14T12:06:25;6.17;;;3.90;;
16115;SDS011;8162;47.104;15.432;2023-06-14T12:09:28;4.50;;;4.10;;
16115;SDS011;8162;47.104;15.432;2023-06-14T12:12:29;5.20;;;4.60;;
16115;SDS011;8162;47.104;15.432;2023-06-14T12:15:31;6.20;;;4.40;;
16115;SDS011;8162;47.104;15.432;2023-06-14T12:18:36;5.87;;;4.13;;
16115;SDS011;8162;47.104;15.432;2023-06-14T12:21:38;4.17;;;3.77;;
16115;SDS011;8162;47.104;15.432;2023-06-14T12:24:45;4.37;;;3.93;;
16115;SDS011;8162;47.104;15.432;2023-06-14T12:27:46;4.17;;;3.83;;
16115;SDS011;8162;47.104;15.432;2023-06-14T12:30:47;4.27;;;3.77;;
16115;SDS011;8162;47.104;15.432;2023-06-14T12:33:49;4.30;;;3.90;;
16115;SDS011;8162;47.104;15.432;2023-06-14T12:36:50;4.53;;;3.97;;
16115;SDS011;8162;47.104;15.432;2023-06-14T12:39:51;5.07;;;4.57;;
16115;SDS011;8162;47.104;15.432;2023-06-14T12:42:52;3.97;;;3.57;;
16115;SDS011;8162;47.104;15.432;2023-06-14T12:45:53;4.37;;;4.03;;
16115;SDS011;8162;47.104;15.432;2023-06-14T12:48:55;4.90;;;4.40;;
16115;SDS011;8162;47.104;15.432;2023-06-14T12:51:56;4.73;;;3.63;;
16115;SDS011;8162;47.104;15.432;2023-06-14T12:54:57;4.10;;;3.70;;
16115;SDS011;8162;47.104;15.432;2023-06-14T12:57:58;4.93;;;3.80;;
16115;SDS011;8162;47.104;15.432;2023-06-14T13:00:59;3.87;;;3.50;;
16115;SDS011;8162;47.104;15.432;2023-06-14T13:04:00;5.20;;;3.83;;
16115;SDS011;8162;47.104;15.432;2023-06-14T13:07:01;4.30;;;3.90;;
16115;SDS011;8162;47.104;15.432;2023-06-14T13:10:02;4.40;;;4.00;;
16115;SDS011;8162;47.104;15.432;2023-06-14T13:13:03;5.13;;;3.67;;
16115;SDS011;8162;47.104;15.432;2023-06-14T13:16:04;5.10;;;4.30;;
16115;SDS011;8162;47.104;15.432;2023-06-14T13:19:05;6.03;;;4.23;;
16115;SDS011;8162;47.104;15.432;2023-06-14T13:22:06;5.00;;;3.97;;
16115;SDS011;8162;47.104;15.432;2023-06-14T13:25:08;4.20;;;3.73;;
16115;SDS011;8162;47.104;15.432;2023-06-14T13:28:09;3.83;;;3.53;;
16115;SDS011;8162;47.104;15.432;2023-06-14T13:31:11;4.60;;;3.53;;
16115;SDS011;8162;47.104;15.432;2023-06-14T13:34:12;6.03;;;4.20;;
16115;SDS011;8162;47.104;15.432;2023-06-14T13:37:13;4.87;;;3.60;;
16115;SDS011;8162;47.104;15.432;2023-06-14T13:40:14;4.37;;;3.80;;
16115;SDS011;8162;47.104;15.432;2023-06-14T13:43:15;3.83;;;3.47;;
16115;SDS011;8162;47.104;15.432;2023-06-14T13:46:16;4.80;;;4.40;;
16115;SDS011;8162;47.104;15.432;2023-06-14T13:49:17;4.23;;;3.83;;
16115;SDS011;8162;47.104;15.432;2023-06-14T13:52:18;4.77;;;3.67;;
16115;SDS011;8162;47.104;15.432;2023-06-14T13:55:19;4.33;;;3.40;;
16115;SDS011;8162;47.104;15.432;2023-06-14T13:58:21;4.30;;;3.90;;
16115;SDS011;8162;47.104;15.432;2023-06-14T14:01:23;4.10;;;3.40;;
16115;SDS011;8162;47.104;15.432;2023-06-14T14:04:25;4.80;;;4.00;;
16115;SDS011;8162;47.104;15.432;2023-06-14T14:07:26;4.77;;;4.07;;
16115;SDS011;8162;47.104;15.432;2023-06-14T14:10:28;4.10;;;3.80;;
16115;SDS011;8162;47.104;15.432;2023-06-14T14:13:29;4.03;;;3.63;;
16115;SDS011;8162;47.104;15.432;2023-06-14T14:16:30;7.10;;;3.90;;
16115;SDS011;8162;47.104;15.432;2023-06-14T14:19:31;3.97;;;3.67;;
16115;SDS011;8162;47.104;15.432;2023-06-14T14:22:32;4.67;;;3.90;;
16115;SDS011;8162;47.104;15.432;2023-06-14T14:25:33;4.23;;;3.83;;
16115;SDS011;8162;47.104;15.432;2023-06-14T14:28:35;4.43;;;4.03;;
16115;SDS011;8162;47.104;15.432;2023-06-14T14:31:36;4.03;;;3.60;;
16115;SDS011;8162;47.104;15.432;2023-06-14T14:34:37;5.33;;;4.10;;
16115;SDS011;8162;47.104;15.432;2023-06-14T14:37:38;5.60;;;4.67;;
16115;SDS011;8162;47.104;15.432;2023-06-14T14:40:39;5.73;;;3.73;;
16115;SDS011;8162;47.104;15.432;2023-06-14T14:43:40;4.40;;;3.97;;
16115;SDS011;8162;47.104;15.432;2023-06-14T14:46:41;4.37;;;3.97;;
16115;SDS011;8162;47.104;15.432;2023-06-14T14:49:43;5.43;;;3.83;;
16115;SDS011;8162;47.104;15.432;2023-06-14T14:52:44;5.00;;;4.07;;
16115;SDS011;8162;47.104;15.432;2023-06-14T14:55:46;4.60;;;4.10;;
16115;SDS011;8162;47.104;15.432;2023-06-14T14:58:47;4.47;;;4.07;;
16115;SDS011;8162;47.104;15.432;2023-06-14T15:01:48;5.30;;;4.80;;
16115;SDS011;8162;47.104;15.432;2023-06-14T15:04:50;4.30;;;3.90;;
16115;SDS011;8162;47.104;15.432;2023-06-14T15:07:51;4.73;;;4.10;;
16115;SDS011;8162;47.104;15.432;2023-06-14T15:10:52;5.27;;;4.73;;
16115;SDS011;8162;47.104;15.432;2023-06-14T15:13:54;4.80;;;4.30;;
16115;SDS011;8162;47.104;15.432;2023-06-14T15:16:55;4.37;;;4.07;;
16115;SDS011;8162;47.104;15.432;2023-06-14T15:19:57;4.97;;;4.40;;
16115;SDS011;8162;47.104;15.432;2023-06-14T15:22:58;4.73;;;4.33;;
16115;SDS011;8162;47.104;15.432;2023-06-14T15:26:00;4.90;;;4.07;;
16115;SDS011;8162;47.104;15.432;2023-06-14T15:29:01;5.10;;;4.60;;
16115;SDS011;8162;47.104;15.432;2023-06-14T15:32:02;4.83;;;4.30;;
16115;SDS011;8162;47.104;15.432;2023-06-14T15:35:03;4.60;;;3.90;;
16115;SDS011;8162;47.104;15.432;2023-06-14T15:38:04;4.40;;;3.93;;
16115;SDS011;8162;47.104;15.432;2023-06-14T15:41:05;4.63;;;4.20;;
16115;SDS011;8162;47.104;15.432;2023-06-14T15:44:07;5.27;;;3.90;;
16115;SDS011;8162;47.104;15.432;2023-06-14T15:47:09;5.50;;;5.00;;
16115;SDS011;8162;47.104;15.432;2023-06-14T15:50:10;4.57;;;4.17;;
16115;SDS011;8162;47.104;15.432;2023-06-14T15:53:11;4.50;;;4.13;;
16115;SDS011;8162;47.104;15.432;2023-06-14T15:56:12;4.97;;;4.47;;
16115;SDS011;8162;47.104;15.432;2023-06-14T15:59:13;5.37;;;4.10;;
16115;SDS011;8162;47.104;15.432;2023-06-14T16:02:14;5.00;;;4.20;;
16115;SDS011;8162;47.104;15.432;2023-06-14T16:05:16;4.43;;;4.03;;
16115;SDS011;8162;47.104;15.432;2023-06-14T16:08:17;5.00;;;4.00;;
16115;SDS011;8162;47.104;15.432;2023-06-14T16:11:18;4.53;;;4.13;;
16115;SDS011;8162;47.104;15.432;2023-06-14T16:14:19;5.03;;;4.20;;
16115;SDS011;8162;47.104;15.432;2023-06-14T16:17:20;4.40;;;4.00;;
16115;SDS011;8162;47.104;15.432;2023-06-14T16:20:21;4.60;;;4.20;;
16115;SDS011;8162;47.104;15.432;2023-06-14T16:23:22;5.93;;;4.17;;
16115;SDS011;8162;47.104;15.432;2023-06-14T16:26:23;5.70;;;4.10;;
16115;SDS011;8162;47.104;15.432;2023-06-14T16:29:25;4.47;;;4.07;;
16115;SDS011;8162;47.104;15.432;2023-06-14T16:32:26;4.03;;;3.73;;
16115;SDS011;8162;47.104;15.432;2023-06-14T16:35:28;6.93;;;4.10;;
16115;SDS011;8162;47.104;15.432;2023-06-14T16:38:31;4.37;;;3.97;;
16115;SDS011;8162;47.104;15.432;2023-06-14T16:41:32;6.80;;;4.13;;
16115;SDS011;8162;47.104;15.432;2023-06-14T16:44:33;5.87;;;4.53;;
16115;SDS011;8162;47.104;15.432;2023-06-14T16:47:34;5.33;;;4.80;;
16115;SDS011;8162;47.104;15.432;2023-06-14T16:50:35;5.10;;;4.60;;
16115;SDS011;8162;47.104;15.432;2023-06-14T16:53:36;4.37;;;4.07;;
16115;SDS011;8162;47.104;15.432;2023-06-14T16:56:37;4.57;;;4.17;;
16115;SDS011;8162;47.104;15.432;2023-06-14T16:59:38;7.07;;;4.43;;
16115;SDS011;8162;47.104;15.432;2023-06-14T17:02:39;4.97;;;4.53;;
16115;SDS011;8162;47.104;15.432;2023-06-14T17:05:53;5.60;;;4.87;;
16115;SDS011;8162;47.104;15.432;2023-06-14T17:08:54;7.83;;;4.23;;
16115;SDS011;8162;47.104;15.432;2023-06-14T17:11:55;5.10;;;4.60;;
16115;SDS011;8162;47.104;15.432;2023-06-14T17:14:56;4.80;;;4.37;;
16115;SDS011;8162;47.104;15.432;2023-06-14T17:17:57;4.47;;;4.00;;
16115;SDS011;8162;47.104;15.432;2023-06-14T17:20:58;4.57;;;3.97;;
16115;SDS011;8162;47.104;15.432;2023-06-14T17:23:59;5.03;;;4.30;;
16115;SDS011;8162;47.104;15.432;2023-06-14T17:27:01;6.67;;;4.37;;
16115;SDS011;8162;47.104;15.432;2023-06-14T17:30:02;4.50;;;4.10;;
16115;SDS011;8162;47.104;15.432;2023-06-14T17:33:10;4.67;;;4.27;;
16115;SDS011;8162;47.104;15.432;2023-06-14T17:36:11;4.80;;;4.30;;
16115;SDS011;8162;47.104;15.432;2023-06-14T17:39:12;5.00;;;4.50;;
16115;SDS011;8162;47.104;15.432;2023-06-14T17:42:13;6.37;;;4.20;;
16115;SDS011;8162;47.104;15.432;2023-06-14T17:45:14;4.67;;;4.27;;
16115;SDS011;8162;47.104;15.432;2023-06-14T17:48:16;4.97;;;4.47;;
16115;SDS011;8162;47.104;15.432;2023-06-14T17:51:17;6.13;;;5.53;;
16115;SDS011;8162;47.104;15.432;2023-06-14T17:54:19;6.17;;;5.27;;
16115;SDS011;8162;47.104;15.432;2023-06-14T17:57:20;8.37;;;4.83;;
16115;SDS011;8162;47.104;15.432;2023-06-14T18:00:21;5.27;;;4.13;;
16115;SDS011;8162;47.104;15.432;2023-06-14T18:03:23;5.43;;;4.93;;
16115;SDS011;8162;47.104;15.432;2023-06-14T18:06:24;5.40;;;4.90;;
16115;SDS011;8162;47.104;15.432;2023-06-14T18:09:26;4.97;;;4.17;;
16115;SDS011;8162;47.104;15.432;2023-06-14T18:12:27;5.80;;;4.70;;
16115;SDS011;8162;47.104;15.432;2023-06-14T18:15:28;5.30;;;4.80;;
16115;SDS011;8162;47.104;15.432;2023-06-14T18:18:29;7.17;;;4.83;;
16115;SDS011;8162;47.104;15.432;2023-06-14T18:21:30;5.10;;;4.70;;
16115;SDS011;8162;47.104;15.432;2023-06-14T18:24:31;4.77;;;4.37;;
16115;SDS011;8162;47.104;15.432;2023-06-14T18:27:32;5.23;;;4.57;;
16115;SDS011;8162;47.104;15.432;2023-06-14T18:30:33;7.13;;;4.60;;
16115;SDS011;8162;47.104;15.432;2023-06-14T18:33:34;7.33;;;4.67;;
16115;SDS011;8162;47.104;15.432;2023-06-14T18:36:35;7.90;;;5.03;;